createdAt,value
2019-01-30T00:00:13.846Z,27.80
2019-01-30T00:01:13.839Z,30.50
2019-01-30T00:02:13.847Z,26.90
2019-01-30T00:03:13.813Z,31.70
2019-01-30T00:04:13.801Z,31.50
2019-01-30T00:05:13.791Z,27.50
2019-01-30T00:06:13.784Z,24.70
2019-01-30T00:07:13.793Z,34.10
2019-01-30T00:08:13.761Z,48.10
2019-01-30T00:09:13.748Z,32.20
2019-01-30T00:10:13.737Z,21.20
2019-01-30T00:11:13.724Z,21.40
2019-01-30T00:12:13.738Z,21.00
2019-01-30T00:13:13.703Z,29.00
2019-01-30T00:14:13.692Z,23.70
2019-01-30T00:15:13.682Z,20.10
2019-01-30T00:16:13.671Z,19.20
2019-01-30T00:17:13.683Z,17.10
2019-01-30T00:18:13.652Z,25.60
2019-01-30T00:19:13.636Z,22.70
2019-01-30T00:20:13.626Z,31.90
2019-01-30T00:21:13.614Z,21.40
2019-01-30T00:22:13.626Z,24.00
2019-01-30T00:23:13.592Z,22.00
2019-01-30T00:24:13.582Z,16.50
2019-01-30T00:25:13.570Z,15.00
2019-01-30T00:26:13.560Z,12.10
2019-01-30T00:27:13.575Z,13.70
2019-01-30T00:28:13.541Z,13.70
2019-01-30T00:29:13.527Z,14.30
2019-01-30T00:30:13.518Z,12.80
2019-01-30T00:31:13.504Z,12.60
2019-01-30T00:32:15.080Z,11.40
2019-01-30T00:33:13.481Z,12.70
2019-01-30T00:34:13.471Z,11.70
2019-01-30T00:35:13.462Z,20.40
2019-01-30T00:36:13.452Z,17.80
2019-01-30T00:37:13.462Z,15.80
2019-01-30T00:38:13.427Z,14.20
2019-01-30T00:39:13.420Z,10.50
2019-01-30T00:40:13.405Z,13.20
2019-01-30T00:41:13.395Z,12.00
2019-01-30T00:42:13.407Z,9.70
2019-01-30T00:43:13.371Z,10.90
2019-01-30T00:44:13.360Z,11.50
2019-01-30T00:45:13.349Z,11.20
2019-01-30T00:46:13.339Z,13.10
2019-01-30T00:47:15.942Z,11.10
2019-01-30T00:48:13.317Z,13.00
2019-01-30T00:49:13.305Z,14.00
2019-01-30T00:50:13.297Z,12.10
2019-01-30T00:51:13.284Z,12.90
2019-01-30T00:52:13.297Z,21.30
2019-01-30T00:53:13.262Z,25.70
2019-01-30T00:54:13.251Z,16.60
2019-01-30T00:55:13.237Z,14.50
2019-01-30T00:56:13.228Z,14.40
2019-01-30T00:57:13.243Z,16.30
2019-01-30T00:58:13.205Z,18.20
2019-01-30T00:59:13.196Z,18.50
2019-01-30T01:00:14.590Z,16.60
2019-01-30T01:01:13.172Z,14.30
2019-01-30T01:02:13.185Z,14.30
2019-01-30T01:03:13.150Z,18.80
2019-01-30T01:04:13.141Z,20.60
2019-01-30T01:05:13.130Z,16.90
2019-01-30T01:06:13.117Z,17.50
2019-01-30T01:07:13.128Z,35.30
2019-01-30T01:08:13.096Z,26.90
2019-01-30T01:09:13.084Z,25.90
2019-01-30T01:10:13.072Z,24.80
2019-01-30T01:11:13.064Z,44.20
2019-01-30T01:12:13.074Z,27.40
2019-01-30T01:13:14.625Z,23.60
2019-01-30T01:14:13.030Z,27.90
2019-01-30T01:15:13.019Z,26.10
2019-01-30T01:16:13.007Z,15.60
2019-01-30T01:17:13.022Z,12.10
2019-01-30T01:18:12.985Z,13.00
2019-01-30T01:19:12.973Z,18.70
2019-01-30T01:20:12.971Z,17.70
2019-01-30T01:21:12.953Z,18.90
2019-01-30T01:22:12.941Z,24.20
2019-01-30T01:23:12.953Z,19.60
2019-01-30T01:24:12.918Z,13.90
2019-01-30T01:25:12.908Z,16.50
2019-01-30T01:26:12.898Z,15.80
2019-01-30T01:27:12.923Z,12.50
2019-01-30T01:28:12.876Z,23.60
2019-01-30T01:29:12.863Z,36.30
2019-01-30T01:30:12.852Z,67.50
2019-01-30T01:31:12.842Z,47.20
2019-01-30T01:32:12.830Z,21.00
2019-01-30T01:33:12.842Z,15.90
2019-01-30T01:34:12.807Z,12.20
2019-01-30T01:35:12.798Z,11.50
2019-01-30T01:36:12.785Z,10.10
2019-01-30T01:37:12.773Z,9.70
2019-01-30T01:38:12.788Z,10.30
2019-01-30T01:39:12.752Z,9.20
2019-01-30T01:40:12.741Z,16.10
2019-01-30T01:41:12.731Z,12.30
2019-01-30T01:42:12.719Z,10.60
2019-01-30T01:43:12.732Z,15.80
2019-01-30T01:44:12.698Z,12.40
2019-01-30T01:45:12.686Z,17.60
2019-01-30T01:46:12.676Z,18.20
2019-01-30T01:47:12.664Z,11.90
2019-01-30T01:48:12.678Z,11.20
2019-01-30T01:49:12.645Z,9.30
2019-01-30T01:50:12.631Z,12.80
2019-01-30T01:51:12.621Z,13.30
2019-01-30T01:52:12.609Z,13.70
2019-01-30T01:53:12.622Z,11.50
2019-01-30T01:54:12.586Z,18.90
2019-01-30T01:55:12.575Z,19.30
2019-01-30T01:56:12.564Z,14.30
2019-01-30T01:57:12.557Z,11.00
2019-01-30T01:58:12.565Z,17.90
2019-01-30T01:59:12.531Z,16.80
2019-01-30T02:00:12.521Z,9.20
2019-01-30T02:01:12.511Z,8.90
2019-01-30T02:02:12.500Z,9.50
2019-01-30T02:03:12.513Z,14.00
2019-01-30T02:04:12.477Z,27.40
2019-01-30T02:05:12.465Z,26.10
2019-01-30T02:06:12.455Z,23.20
2019-01-30T02:07:12.443Z,16.90
2019-01-30T02:08:12.456Z,15.20
2019-01-30T02:09:12.422Z,10.10
2019-01-30T02:10:12.410Z,10.00
2019-01-30T02:11:12.400Z,16.50
2019-01-30T02:12:12.388Z,12.10
2019-01-30T02:13:12.380Z,13.60
2019-01-30T02:14:12.390Z,12.30
2019-01-30T02:15:12.355Z,17.10
2019-01-30T02:16:12.344Z,17.70
2019-01-30T02:17:12.334Z,13.50
2019-01-30T02:18:12.324Z,14.90
2019-01-30T02:19:12.335Z,13.30
2019-01-30T02:20:12.305Z,10.80
2019-01-30T02:21:12.290Z,11.20
2019-01-30T02:22:12.278Z,8.70
2019-01-30T02:23:12.267Z,11.80
2019-01-30T02:24:12.279Z,9.60
2019-01-30T02:25:12.246Z,9.10
2019-01-30T02:26:12.233Z,11.90
2019-01-30T02:27:12.223Z,16.00
2019-01-30T02:28:12.211Z,12.20
2019-01-30T02:29:12.226Z,10.80
2019-01-30T02:30:12.190Z,10.00
2019-01-30T02:31:12.179Z,9.10
2019-01-30T02:32:12.168Z,9.20
2019-01-30T02:33:12.156Z,8.90
2019-01-30T02:34:12.169Z,11.10
2019-01-30T02:35:12.136Z,8.80
2019-01-30T02:36:12.125Z,7.80
2019-01-30T02:37:12.116Z,10.30
2019-01-30T02:38:12.107Z,11.70
2019-01-30T02:39:12.114Z,9.40
2019-01-30T02:40:12.079Z,8.30
2019-01-30T02:41:12.068Z,9.20
2019-01-30T02:42:12.059Z,9.00
2019-01-30T02:43:12.048Z,9.20
2019-01-30T02:44:12.061Z,7.90
2019-01-30T02:45:12.025Z,10.60
2019-01-30T02:46:12.014Z,8.10
2019-01-30T02:47:12.005Z,7.20
2019-01-30T02:48:11.996Z,9.20
2019-01-30T02:49:12.006Z,9.10
2019-01-30T02:50:11.968Z,8.80
2019-01-30T02:51:11.963Z,8.30
2019-01-30T02:52:11.948Z,9.50
2019-01-30T02:53:11.942Z,8.60
2019-01-30T02:54:11.949Z,9.30
2019-01-30T02:55:11.913Z,8.00
2019-01-30T02:56:11.904Z,11.20
2019-01-30T02:57:11.902Z,10.80
2019-01-30T02:58:11.882Z,11.00
2019-01-30T02:59:11.894Z,12.80
2019-01-30T03:00:11.877Z,10.20
2019-01-30T03:01:11.850Z,19.10
2019-01-30T03:02:11.836Z,13.60
2019-01-30T03:03:11.824Z,14.20
2019-01-30T03:04:11.840Z,45.90
2019-01-30T03:05:11.809Z,49.50
2019-01-30T03:06:11.793Z,42.20
2019-01-30T03:07:11.781Z,23.60
2019-01-30T03:08:11.769Z,28.00
2019-01-30T03:09:11.781Z,29.60
2019-01-30T03:10:11.747Z,20.30
2019-01-30T03:11:11.744Z,24.00
2019-01-30T03:12:11.725Z,24.50
2019-01-30T03:13:11.714Z,24.00
2019-01-30T03:14:11.729Z,16.00
2019-01-30T03:15:11.693Z,14.10
2019-01-30T03:16:11.681Z,25.80
2019-01-30T03:17:11.670Z,29.80
2019-01-30T03:18:11.660Z,21.80
2019-01-30T03:19:11.674Z,28.60
2019-01-30T03:20:11.650Z,15.30
2019-01-30T03:21:11.627Z,49.40
2019-01-30T03:22:11.617Z,41.80
2019-01-30T03:23:11.607Z,28.80
2019-01-30T03:24:11.620Z,26.00
2019-01-30T03:25:11.583Z,22.30
2019-01-30T03:26:11.570Z,16.40
2019-01-30T03:27:11.559Z,13.00
2019-01-30T03:28:11.549Z,28.90
2019-01-30T03:29:11.562Z,19.90
2019-01-30T03:30:11.527Z,29.50
2019-01-30T03:31:17.554Z,23.40
2019-01-30T03:32:12.506Z,17.10
2019-01-30T03:33:11.502Z,21.20
2019-01-30T03:34:11.506Z,21.00
2019-01-30T03:35:11.473Z,22.20
2019-01-30T03:36:11.462Z,36.80
2019-01-30T03:37:11.448Z,27.00
2019-01-30T03:38:11.438Z,24.90
2019-01-30T03:39:11.456Z,32.60
2019-01-30T03:40:11.419Z,24.50
2019-01-30T03:41:11.405Z,22.00
2019-01-30T03:42:11.394Z,15.30
2019-01-30T03:43:11.386Z,25.10
2019-01-30T03:44:11.374Z,23.10
2019-01-30T03:45:11.386Z,21.50
2019-01-30T03:46:11.351Z,20.60
2019-01-30T03:47:11.338Z,15.50
2019-01-30T03:48:11.328Z,17.70
2019-01-30T03:49:11.343Z,24.00
2019-01-30T03:50:11.310Z,23.80
2019-01-30T03:51:11.294Z,26.10
2019-01-30T03:52:11.285Z,18.30
2019-01-30T03:53:11.273Z,16.30
2019-01-30T03:54:11.264Z,28.20
2019-01-30T03:55:11.283Z,46.30
2019-01-30T03:56:11.240Z,21.30
2019-01-30T03:57:11.229Z,28.00
2019-01-30T03:58:11.231Z,32.40
2019-01-30T03:59:11.208Z,27.20
2019-01-30T04:00:11.221Z,26.50
2019-01-30T04:01:11.185Z,21.90
2019-01-30T04:02:11.176Z,42.50
2019-01-30T04:03:11.163Z,37.60
2019-01-30T04:04:11.153Z,29.70
2019-01-30T04:05:11.164Z,33.00
2019-01-30T04:06:11.132Z,46.10
2019-01-30T04:07:11.118Z,44.30
2019-01-30T04:08:11.108Z,37.60
2019-01-30T04:09:11.097Z,28.90
2019-01-30T04:10:11.116Z,27.40
2019-01-30T04:11:11.073Z,24.90
2019-01-30T04:12:11.063Z,29.30
2019-01-30T04:13:11.055Z,23.40
2019-01-30T04:14:11.043Z,24.10
2019-01-30T04:15:11.058Z,30.40
2019-01-30T04:16:11.027Z,16.40
2019-01-30T04:17:11.045Z,20.30
2019-01-30T04:18:10.997Z,14.70
2019-01-30T04:19:10.988Z,28.10
2019-01-30T04:20:11.000Z,31.10
2019-01-30T04:21:10.965Z,43.00
2019-01-30T04:22:10.953Z,24.30
2019-01-30T04:23:10.943Z,15.50
2019-01-30T04:24:10.932Z,13.50
2019-01-30T04:25:10.958Z,13.60
2019-01-30T04:26:10.910Z,14.40
2019-01-30T04:27:10.898Z,13.00
2019-01-30T04:28:10.887Z,10.70
2019-01-30T04:29:10.875Z,13.50
2019-01-30T04:30:10.889Z,11.40
2019-01-30T04:31:10.855Z,11.40
2019-01-30T04:32:10.847Z,10.80
2019-01-30T04:33:10.833Z,9.10
2019-01-30T04:34:10.824Z,8.80
2019-01-30T04:35:10.833Z,8.90
2019-01-30T04:36:10.799Z,10.30
2019-01-30T04:37:10.788Z,9.80
2019-01-30T04:38:10.777Z,8.70
2019-01-30T04:39:10.764Z,8.70
2019-01-30T04:40:10.778Z,10.90
2019-01-30T04:41:10.743Z,10.50
2019-01-30T04:42:10.733Z,8.00
2019-01-30T04:43:10.720Z,9.40
2019-01-30T04:44:10.708Z,8.60
2019-01-30T04:45:10.730Z,8.20
2019-01-30T04:46:10.688Z,11.00
2019-01-30T04:47:10.695Z,10.50
2019-01-30T04:48:10.670Z,10.30
2019-01-30T04:49:10.656Z,7.70
2019-01-30T04:50:10.667Z,9.60
2019-01-30T04:51:10.636Z,8.50
2019-01-30T04:52:10.620Z,8.80
2019-01-30T04:53:10.614Z,7.20
2019-01-30T04:54:10.598Z,8.20
2019-01-30T04:55:10.613Z,9.70
2019-01-30T04:56:10.577Z,8.10
2019-01-30T04:57:10.566Z,8.70
2019-01-30T04:58:10.556Z,8.20
2019-01-30T04:59:10.546Z,7.60
2019-01-30T05:00:10.560Z,9.20
2019-01-30T05:01:10.522Z,8.90
2019-01-30T05:02:10.513Z,8.90
2019-01-30T05:03:10.509Z,24.60
2019-01-30T05:04:10.490Z,20.10
2019-01-30T05:05:10.504Z,24.20
2019-01-30T05:06:10.467Z,18.30
2019-01-30T05:07:10.458Z,16.60
2019-01-30T05:08:10.445Z,15.50
2019-01-30T05:09:10.435Z,20.40
2019-01-30T05:10:10.446Z,18.10
2019-01-30T05:11:10.411Z,16.00
2019-01-30T05:12:10.400Z,14.00
2019-01-30T05:13:10.391Z,35.20
2019-01-30T05:14:10.380Z,31.50
2019-01-30T05:15:10.391Z,19.90
2019-01-30T05:16:10.355Z,12.50
2019-01-30T05:17:10.346Z,10.20
2019-01-30T05:18:10.335Z,12.80
2019-01-30T05:19:10.325Z,10.20
2019-01-30T05:20:10.339Z,9.50
2019-01-30T05:21:10.302Z,8.80
2019-01-30T05:22:10.291Z,10.60
2019-01-30T05:23:10.279Z,8.40
2019-01-30T05:24:10.268Z,10.10
2019-01-30T05:25:10.279Z,9.70
2019-01-30T05:26:10.245Z,10.50
2019-01-30T05:27:10.235Z,8.20
2019-01-30T05:28:10.224Z,9.00
2019-01-30T05:29:10.212Z,9.60
2019-01-30T05:30:10.206Z,8.30
2019-01-30T05:31:10.215Z,9.60
2019-01-30T05:32:10.179Z,8.10
2019-01-30T05:33:10.170Z,7.70
2019-01-30T05:34:10.156Z,7.90
2019-01-30T05:35:10.149Z,7.80
2019-01-30T05:36:10.160Z,8.50
2019-01-30T05:37:10.140Z,7.80
2019-01-30T05:38:10.115Z,7.40
2019-01-30T05:39:10.106Z,6.90
2019-01-30T05:40:10.092Z,13.10
2019-01-30T05:41:10.104Z,17.10
2019-01-30T05:42:10.071Z,17.10
2019-01-30T05:43:10.059Z,11.80
2019-01-30T05:44:10.047Z,16.30
2019-01-30T05:45:10.050Z,17.50
2019-01-30T05:46:10.050Z,19.10
2019-01-30T05:47:10.016Z,18.90
2019-01-30T05:48:10.002Z,21.30
2019-01-30T05:49:09.993Z,18.00
2019-01-30T05:50:09.980Z,13.60
2019-01-30T05:51:10.002Z,16.20
2019-01-30T05:52:09.959Z,12.50
2019-01-30T05:53:09.947Z,13.30
2019-01-30T05:54:09.939Z,14.90
2019-01-30T05:55:09.925Z,16.30
2019-01-30T05:56:09.939Z,15.90
2019-01-30T05:57:09.903Z,13.50
2019-01-30T05:58:09.892Z,10.80
2019-01-30T05:59:09.883Z,12.70
2019-01-30T06:00:09.870Z,12.10
2019-01-30T06:01:09.882Z,10.90
2019-01-30T06:02:12.162Z,10.80
2019-01-30T06:03:09.837Z,12.30
2019-01-30T06:04:09.826Z,18.10
2019-01-30T06:05:09.815Z,11.70
2019-01-30T06:06:09.829Z,10.50
2019-01-30T06:07:09.795Z,8.30
2019-01-30T06:08:09.783Z,12.20
2019-01-30T06:09:09.814Z,18.50
2019-01-30T06:10:09.759Z,20.50
2019-01-30T06:11:12.127Z,17.40
2019-01-30T06:12:09.740Z,24.30
2019-01-30T06:13:09.744Z,27.10
2019-01-30T06:14:09.715Z,37.50
2019-01-30T06:15:09.704Z,25.40
2019-01-30T06:16:09.716Z,13.50
2019-01-30T06:17:09.848Z,20.20
2019-01-30T06:18:09.672Z,21.10
2019-01-30T06:19:09.661Z,15.50
2019-01-30T06:20:09.651Z,14.90
2019-01-30T06:21:09.664Z,15.80
2019-01-30T06:22:09.627Z,14.40
2019-01-30T06:23:09.618Z,12.70
2019-01-30T06:24:09.606Z,12.40
2019-01-30T06:25:09.602Z,9.80
2019-01-30T06:26:09.624Z,12.40
2019-01-30T06:27:09.572Z,9.00
2019-01-30T06:28:09.564Z,8.20
2019-01-30T06:29:09.552Z,9.00
2019-01-30T06:30:09.538Z,8.20
2019-01-30T06:31:09.550Z,9.90
2019-01-30T06:32:09.516Z,10.10
2019-01-30T06:33:09.504Z,10.40
2019-01-30T06:34:09.495Z,10.60
2019-01-30T06:35:09.483Z,10.40
2019-01-30T06:36:09.497Z,9.50
2019-01-30T06:37:09.461Z,10.90
2019-01-30T06:38:09.450Z,11.00
2019-01-30T06:39:09.439Z,28.70
2019-01-30T06:40:09.428Z,30.30
2019-01-30T06:41:09.441Z,20.40
2019-01-30T06:42:09.409Z,17.60
2019-01-30T06:43:09.396Z,12.80
2019-01-30T06:44:09.382Z,12.40
2019-01-30T06:45:09.372Z,14.70
2019-01-30T06:46:09.386Z,10.50
2019-01-30T06:47:09.353Z,13.00
2019-01-30T06:48:09.339Z,9.80
2019-01-30T06:49:09.329Z,19.30
2019-01-30T06:50:09.321Z,12.30
2019-01-30T06:51:09.330Z,10.90
2019-01-30T06:52:09.295Z,13.50
2019-01-30T06:53:09.285Z,12.10
2019-01-30T06:54:09.273Z,12.00
2019-01-30T06:55:09.264Z,14.50
2019-01-30T06:56:09.277Z,14.60
2019-01-30T06:57:09.242Z,18.30
2019-01-30T06:58:09.230Z,14.10
2019-01-30T06:59:09.218Z,12.50
2019-01-30T07:00:09.206Z,11.50
2019-01-30T07:01:09.221Z,12.30
2019-01-30T07:02:09.187Z,16.10
2019-01-30T07:03:09.174Z,15.30
2019-01-30T07:04:09.165Z,15.30
2019-01-30T07:05:09.153Z,13.70
2019-01-30T07:06:09.169Z,20.00
2019-01-30T07:07:09.130Z,25.50
2019-01-30T07:08:09.119Z,20.60
2019-01-30T07:09:09.109Z,27.00
2019-01-30T07:10:09.097Z,20.10
2019-01-30T07:11:10.662Z,20.60
2019-01-30T07:12:09.099Z,21.20
2019-01-30T07:13:09.064Z,30.10
2019-01-30T07:14:09.054Z,26.90
2019-01-30T07:15:09.045Z,33.20
2019-01-30T07:16:09.032Z,30.40
2019-01-30T07:17:09.045Z,24.80
2019-01-30T07:18:09.013Z,21.10
2019-01-30T07:19:08.998Z,19.20
2019-01-30T07:20:08.987Z,28.00
2019-01-30T07:21:08.977Z,18.60
2019-01-30T07:22:08.988Z,16.60
2019-01-30T07:23:08.955Z,17.30
2019-01-30T07:24:08.942Z,20.90
2019-01-30T07:25:08.932Z,21.90
2019-01-30T07:26:08.922Z,25.50
2019-01-30T07:27:08.935Z,28.20
2019-01-30T07:28:08.899Z,20.10
2019-01-30T07:29:08.887Z,19.30
2019-01-30T07:30:08.877Z,19.50
2019-01-30T07:31:08.867Z,18.50
2019-01-30T07:32:08.882Z,15.40
2019-01-30T07:33:08.843Z,20.70
2019-01-30T07:34:08.833Z,17.10
2019-01-30T07:35:08.825Z,18.20
2019-01-30T07:36:08.810Z,21.10
2019-01-30T07:37:08.822Z,17.10
2019-01-30T07:38:08.792Z,22.80
2019-01-30T07:39:08.777Z,29.10
2019-01-30T07:40:08.767Z,24.50
2019-01-30T07:41:08.843Z,14.30
2019-01-30T07:42:08.767Z,18.40
2019-01-30T07:43:08.734Z,23.30
2019-01-30T07:44:08.723Z,14.40
2019-01-30T07:45:08.712Z,21.10
2019-01-30T07:46:08.702Z,20.30
2019-01-30T07:47:08.713Z,19.20
2019-01-30T07:48:08.678Z,20.50
2019-01-30T07:49:08.669Z,18.10
2019-01-30T07:50:08.658Z,16.10
2019-01-30T07:51:08.647Z,23.10
2019-01-30T07:52:08.658Z,18.30
2019-01-30T07:53:08.625Z,31.40
2019-01-30T07:54:08.612Z,26.60
2019-01-30T07:55:08.603Z,22.60
2019-01-30T07:56:08.591Z,27.50
2019-01-30T07:57:08.606Z,15.90
2019-01-30T07:58:08.570Z,16.30
2019-01-30T07:59:08.559Z,17.30
2019-01-30T08:00:08.546Z,15.20
2019-01-30T08:01:08.545Z,15.60
2019-01-30T08:02:08.547Z,13.90
2019-01-30T08:03:08.519Z,32.00
2019-01-30T08:04:08.502Z,39.00
2019-01-30T08:05:08.491Z,26.80
2019-01-30T08:06:08.482Z,19.80
2019-01-30T08:07:08.495Z,29.20
2019-01-30T08:08:08.462Z,38.30
2019-01-30T08:09:08.448Z,29.00
2019-01-30T08:10:08.495Z,16.70
2019-01-30T08:11:08.425Z,17.90
2019-01-30T08:12:08.438Z,25.00
2019-01-30T08:13:08.408Z,23.20
2019-01-30T08:14:08.392Z,25.10
2019-01-30T08:15:08.383Z,19.20
2019-01-30T08:16:08.369Z,18.50
2019-01-30T08:17:08.389Z,16.50
2019-01-30T08:18:08.349Z,19.40
2019-01-30T08:19:08.336Z,31.00
2019-01-30T08:20:08.326Z,30.30
2019-01-30T08:21:08.317Z,20.30
2019-01-30T08:22:08.325Z,28.30
2019-01-30T08:23:08.740Z,30.40
2019-01-30T08:24:08.742Z,29.30
2019-01-30T08:25:08.625Z,20.50
2019-01-30T08:26:08.652Z,15.70
2019-01-30T08:27:08.544Z,15.50
2019-01-30T08:28:08.460Z,11.40
2019-01-30T08:29:08.422Z,14.90
2019-01-30T08:30:08.224Z,14.90
2019-01-30T08:31:08.494Z,16.60
2019-01-30T08:32:08.291Z,14.50
2019-01-30T08:33:08.202Z,16.90
2019-01-30T08:34:08.171Z,13.10
2019-01-30T08:35:08.159Z,35.40
2019-01-30T08:36:08.152Z,29.10
2019-01-30T08:37:08.160Z,21.90
2019-01-30T08:38:08.129Z,17.50
2019-01-30T08:39:08.115Z,15.20
2019-01-30T08:40:08.105Z,15.50
2019-01-30T08:41:08.101Z,15.30
2019-01-30T08:42:08.106Z,27.70
2019-01-30T08:43:08.072Z,32.00
2019-01-30T08:44:08.068Z,36.50
2019-01-30T08:45:08.052Z,31.50
2019-01-30T08:46:08.037Z,27.70
2019-01-30T08:47:08.029Z,21.00
2019-01-30T08:48:08.039Z,15.70
2019-01-30T08:49:08.008Z,15.40
2019-01-30T08:50:07.997Z,16.40
2019-01-30T08:51:07.984Z,13.90
2019-01-30T08:52:07.974Z,12.40
2019-01-30T08:53:07.984Z,13.50
2019-01-30T08:54:07.952Z,13.60
2019-01-30T08:55:07.938Z,15.00
2019-01-30T08:56:07.927Z,14.50
2019-01-30T08:57:07.918Z,12.70
2019-01-30T08:58:07.933Z,12.20
2019-01-30T08:59:07.894Z,15.60
2019-01-30T09:00:07.884Z,15.40
2019-01-30T09:01:07.874Z,15.50
2019-01-30T09:02:07.863Z,14.40
2019-01-30T09:03:14.560Z,14.40
2019-01-30T09:04:11.281Z,13.40
2019-01-30T09:05:07.828Z,12.40
2019-01-30T09:06:07.816Z,14.30
2019-01-30T09:07:07.806Z,14.10
2019-01-30T09:08:08.867Z,14.60
2019-01-30T09:09:07.783Z,19.40
2019-01-30T09:10:07.773Z,22.60
2019-01-30T09:11:07.763Z,21.10
2019-01-30T09:12:07.764Z,23.50
2019-01-30T09:13:07.766Z,23.00
2019-01-30T09:14:07.728Z,22.80
2019-01-30T09:15:07.717Z,18.70
2019-01-30T09:16:07.706Z,18.20
2019-01-30T09:17:08.764Z,32.10
2019-01-30T09:18:07.710Z,38.80
2019-01-30T09:19:07.675Z,27.70
2019-01-30T09:20:07.662Z,23.30
2019-01-30T09:21:07.655Z,16.20
2019-01-30T09:22:07.710Z,16.50
2019-01-30T09:23:07.653Z,16.90
2019-01-30T09:24:07.618Z,21.60
2019-01-30T09:25:07.606Z,22.20
2019-01-30T09:26:07.596Z,19.90
2019-01-30T09:27:07.585Z,21.40
2019-01-30T09:28:07.596Z,19.00
2019-01-30T09:29:07.563Z,18.40
2019-01-30T09:30:07.552Z,21.80
2019-01-30T09:31:07.540Z,14.90
2019-01-30T09:32:07.531Z,13.90
2019-01-30T09:33:07.542Z,15.10
2019-01-30T09:34:07.509Z,20.90
2019-01-30T09:35:07.496Z,25.50
2019-01-30T09:36:07.519Z,16.60
2019-01-30T09:37:07.478Z,14.70
2019-01-30T09:38:07.493Z,16.60
2019-01-30T09:39:07.488Z,14.00
2019-01-30T09:40:07.458Z,13.50
2019-01-30T09:41:07.431Z,15.20
2019-01-30T09:42:07.420Z,15.50
2019-01-30T09:43:07.431Z,16.00
2019-01-30T09:44:07.397Z,14.20
2019-01-30T09:45:09.876Z,14.50
2019-01-30T09:46:07.379Z,16.00
2019-01-30T09:47:07.364Z,16.70
2019-01-30T09:48:07.407Z,14.10
2019-01-30T09:49:07.344Z,18.80
2019-01-30T09:50:07.331Z,19.20
2019-01-30T09:51:07.319Z,29.30
2019-01-30T09:52:07.311Z,20.70
2019-01-30T09:53:07.345Z,22.60
2019-01-30T09:54:07.289Z,17.60
2019-01-30T09:55:07.278Z,19.30
2019-01-30T09:56:07.264Z,16.00
2019-01-30T09:57:07.270Z,14.90
2019-01-30T09:58:07.272Z,18.80
2019-01-30T09:59:07.230Z,21.50
2019-01-30T10:00:07.219Z,28.10
2019-01-30T10:01:07.213Z,25.80
2019-01-30T10:02:07.196Z,28.30
2019-01-30T10:03:07.209Z,20.20
2019-01-30T10:04:07.188Z,17.40
2019-01-30T10:05:07.164Z,20.00
2019-01-30T10:06:07.153Z,20.10
2019-01-30T10:07:07.144Z,19.00
2019-01-30T10:08:07.152Z,19.70
2019-01-30T10:09:07.125Z,17.80
2019-01-30T10:10:07.108Z,17.40
2019-01-30T10:11:07.098Z,23.70
2019-01-30T10:12:07.088Z,22.00
2019-01-30T10:13:07.099Z,20.20
2019-01-30T10:14:07.065Z,14.60
2019-01-30T10:15:07.053Z,16.20
2019-01-30T10:16:07.049Z,15.40
2019-01-30T10:17:07.033Z,14.30
2019-01-30T10:18:07.048Z,18.50
2019-01-30T10:19:07.009Z,14.50
2019-01-30T10:20:06.998Z,15.40
2019-01-30T10:21:06.987Z,16.10
2019-01-30T10:22:06.977Z,17.60
2019-01-30T10:23:06.989Z,13.60
2019-01-30T10:24:06.954Z,14.90
2019-01-30T10:25:06.943Z,16.20
2019-01-30T10:26:06.934Z,16.20
2019-01-30T10:27:06.923Z,19.20
2019-01-30T10:28:16.360Z,15.60
2019-01-30T10:29:07.921Z,15.30
2019-01-30T10:30:06.889Z,16.50
2019-01-30T10:31:06.876Z,15.70
2019-01-30T10:32:06.868Z,15.80
2019-01-30T10:33:06.857Z,15.30
2019-01-30T10:34:06.868Z,17.50
2019-01-30T10:35:06.834Z,12.90
2019-01-30T10:36:06.821Z,14.20
2019-01-30T10:37:06.814Z,15.00
2019-01-30T10:38:06.801Z,16.00
2019-01-30T10:39:06.813Z,16.90
2019-01-30T10:40:06.777Z,16.40
2019-01-30T10:41:06.770Z,14.30
2019-01-30T10:42:06.755Z,14.20
2019-01-30T10:43:06.793Z,14.20
2019-01-30T10:44:06.758Z,15.00
2019-01-30T10:45:06.720Z,15.50
2019-01-30T10:46:06.710Z,13.70
2019-01-30T10:47:06.698Z,15.40
2019-01-30T10:48:06.689Z,14.60
2019-01-30T10:49:06.700Z,15.00
2019-01-30T10:50:06.674Z,15.80
2019-01-30T10:51:07.463Z,13.90
2019-01-30T10:52:06.645Z,12.40
2019-01-30T10:53:06.632Z,13.00
2019-01-30T10:54:06.647Z,15.80
2019-01-30T10:55:06.611Z,16.90
2019-01-30T10:56:06.606Z,13.50
2019-01-30T10:57:06.589Z,15.10
2019-01-30T10:58:06.577Z,14.80
2019-01-30T10:59:06.592Z,14.90
2019-01-30T11:00:06.556Z,15.70
2019-01-30T11:01:06.546Z,15.50
2019-01-30T11:02:06.534Z,14.10
2019-01-30T11:03:06.526Z,14.00
2019-01-30T11:04:06.535Z,14.20
2019-01-30T11:05:06.500Z,14.30
2019-01-30T11:06:06.489Z,14.00
2019-01-30T11:07:06.481Z,16.50
2019-01-30T11:08:06.468Z,14.10
2019-01-30T11:09:06.484Z,15.70
2019-01-30T11:10:06.447Z,12.50
2019-01-30T11:11:07.909Z,16.00
2019-01-30T11:12:06.423Z,14.10
2019-01-30T11:13:06.411Z,16.70
2019-01-30T11:14:06.423Z,15.10
2019-01-30T11:15:06.396Z,15.90
2019-01-30T11:16:06.379Z,14.50
2019-01-30T11:17:08.631Z,15.20
2019-01-30T11:18:06.357Z,16.80
2019-01-30T11:19:06.369Z,14.00
2019-01-30T11:20:06.335Z,13.90
2019-01-30T11:21:06.326Z,15.50
2019-01-30T11:22:06.313Z,14.00
2019-01-30T11:23:06.302Z,16.10
2019-01-30T11:24:06.317Z,15.00
2019-01-30T11:25:06.281Z,15.00
2019-01-30T11:26:06.273Z,14.10
2019-01-30T11:27:06.262Z,14.40
2019-01-30T11:28:06.246Z,12.20
2019-01-30T11:29:06.259Z,15.30
2019-01-30T11:30:06.224Z,13.70
2019-01-30T11:31:06.216Z,14.50
2019-01-30T11:32:06.202Z,14.40
2019-01-30T11:33:06.191Z,15.00
2019-01-30T11:34:07.662Z,15.60
2019-01-30T11:35:06.171Z,13.20
2019-01-30T11:36:06.160Z,13.90
2019-01-30T11:37:06.146Z,15.10
2019-01-30T11:38:08.817Z,15.10
2019-01-30T11:39:06.148Z,13.70
2019-01-30T11:40:06.113Z,13.50
2019-01-30T11:41:06.101Z,14.50
2019-01-30T11:42:06.092Z,15.50
2019-01-30T11:43:06.080Z,14.50
2019-01-30T11:44:06.093Z,14.00
2019-01-30T11:45:06.057Z,14.10
2019-01-30T11:46:06.056Z,19.30
2019-01-30T11:47:06.036Z,18.60
2019-01-30T11:48:06.025Z,16.30
2019-01-30T11:49:06.040Z,17.60
2019-01-30T11:50:06.004Z,16.20
2019-01-30T11:51:05.992Z,20.70
2019-01-30T11:52:05.981Z,18.00
2019-01-30T11:53:05.973Z,15.40
2019-01-30T11:54:05.981Z,16.80
2019-01-30T11:55:05.950Z,15.90
2019-01-30T11:56:05.936Z,16.10
2019-01-30T11:57:05.926Z,17.80
2019-01-30T11:58:05.916Z,19.50
2019-01-30T11:59:06.027Z,16.50
2019-01-30T12:00:05.896Z,16.80
2019-01-30T12:01:05.883Z,17.20
2019-01-30T12:02:05.871Z,15.90
2019-01-30T12:03:05.860Z,17.90
2019-01-30T12:04:05.873Z,15.20
2019-01-30T12:05:05.838Z,16.40
2019-01-30T12:06:05.831Z,18.20
2019-01-30T12:07:05.815Z,16.30
2019-01-30T12:08:05.803Z,16.80
2019-01-30T12:09:05.797Z,17.80
2019-01-30T12:10:05.805Z,15.50
2019-01-30T12:11:05.770Z,16.00
2019-01-30T12:12:05.760Z,16.80
2019-01-30T12:13:05.749Z,17.00
2019-01-30T12:14:05.739Z,16.30
2019-01-30T12:15:05.749Z,18.40
2019-01-30T12:16:05.714Z,18.10
2019-01-30T12:17:05.703Z,15.60
2019-01-30T12:18:05.693Z,14.80
2019-01-30T12:19:05.685Z,15.90
2019-01-30T12:20:05.706Z,16.40
2019-01-30T12:21:05.661Z,16.80
2019-01-30T12:22:05.648Z,17.10
2019-01-30T12:23:05.639Z,16.80
2019-01-30T12:24:05.629Z,15.60
2019-01-30T12:25:05.638Z,15.80
2019-01-30T12:26:05.605Z,18.60
2019-01-30T12:27:05.593Z,15.30
2019-01-30T12:28:05.583Z,17.00
2019-01-30T12:29:05.571Z,15.20
2019-01-30T12:30:05.587Z,14.10
2019-01-30T12:31:05.551Z,17.70
2019-01-30T12:32:05.539Z,17.80
2019-01-30T12:33:05.531Z,16.10
2019-01-30T12:34:05.517Z,17.70
2019-01-30T12:35:05.529Z,17.40
2019-01-30T12:36:05.494Z,16.70
2019-01-30T12:37:05.485Z,15.40
2019-01-30T12:38:05.473Z,17.20
2019-01-30T12:39:05.463Z,17.30
2019-01-30T12:40:05.474Z,16.50
2019-01-30T12:41:05.455Z,20.00
2019-01-30T12:42:05.428Z,18.30
2019-01-30T12:43:05.418Z,18.10
2019-01-30T12:44:05.406Z,15.50
2019-01-30T12:45:05.417Z,15.50
2019-01-30T12:46:05.384Z,16.90
2019-01-30T12:47:05.374Z,17.90
2019-01-30T12:48:05.362Z,15.00
2019-01-30T12:49:05.356Z,16.30
2019-01-30T12:50:07.410Z,17.20
2019-01-30T12:51:05.328Z,17.70
2019-01-30T12:52:05.321Z,17.20
2019-01-30T12:53:05.307Z,17.50
2019-01-30T12:54:05.296Z,15.90
2019-01-30T12:55:05.310Z,16.40